PWSweather.com
Personal Weather Stations
Station Observations
J24K28P63
Vysocina, PocatkyCZ 39464

VysocinaPocatkyCZ 39464

Lat: 49.2594238, Lon: 15.2331769

Elevation: 2011

Station Type: Vantage Pro2+

http://meteo-jirkalina.com

High Low Average
Temperature 56.8°F13.8°C 28.4°F-2.0°C 37.2°F2.9°C
Dew Point 49.0°F9.4°C 27.2°F-2.7°C 34.4°F1.3°C
Winds 7.0 mph 11.3 kmh Calm Calm 3.0 mph SW4.8 kmh SW
Wind Gusts 12.0 mph19.3 kmh -- 4.0 mph6.4 kmh
Humidity 99% 62% 90%
Pressure 30.33 in1027.1 mb 29.98 in1015.2 mb -
Precipitation 0.01 in0.3 mm - -
Hour Temp Dew Point Humidity Winds Wind Gusts Pressure Precip Precip Rate Daily Precip Total
12:00 AM 32.7°F0.4°C 31.7°F-0.2°C 96% 4.0 mph NNW6.4 kmh NNW 6.0 mph9.7 kmh 30.07 in1018.3 mb - 0.00 in0.0 mm 0.00 in0.0 mm
12:10 AM 36.0°F2.2°C 35.0°F1.7°C 96% 6.0 mph WSW9.7 kmh WSW 10.0 mph16.1 kmh 30.13 in1020.3 mb 0.00 in0.0 mm 0.00 in0.0 mm 0.00 in0.0 mm
12:20 AM 35.7°F2.1°C 34.4°F1.3°C 95% 5.0 mph WSW8.0 kmh WSW 8.0 mph12.9 kmh 30.13 in1020.3 mb 0.00 in0.0 mm 0.00 in0.0 mm 0.00 in0.0 mm
12:30 AM 32.5°F0.3°C 31.5°F-0.3°C 96% 2.9 mph W4.7 kmh W 5.0 mph8.0 kmh 30.08 in1018.6 mb - 0.00 in0.0 mm 0.00 in0.0 mm
01:00 AM 32.8°F0.4°C 31.8°F-0.1°C 96% 2.9 mph W4.7 kmh W 6.0 mph9.7 kmh 30.09 in1019.0 mb - 0.00 in0.0 mm 0.00 in0.0 mm
01:20 AM 43.9°F6.6°C 43.1°F6.2°C 97% Calm Calm -- 30.23 in1023.7 mb 0.00 in0.0 mm 0.00 in0.0 mm 0.00 in0.0 mm
01:30 AM 32.7°F0.4°C 31.7°F-0.2°C 96% 2.0 mph W3.2 kmh W 4.0 mph6.4 kmh 30.10 in1019.3 mb - 0.00 in0.0 mm 0.00 in0.0 mm
02:00 AM 31.9°F-0.1°C 30.6°F-0.8°C 95% 1.9 mph W3.1 kmh W 3.0 mph4.8 kmh 30.11 in1019.6 mb - 0.00 in0.0 mm 0.00 in0.0 mm
02:30 AM 31.9°F-0.1°C 30.9°F-0.6°C 96% 0.4 mph WNW0.6 kmh WNW 2.0 mph3.2 kmh 30.11 in1019.6 mb - 0.00 in0.0 mm 0.00 in0.0 mm
03:00 AM 32.7°F0.4°C 31.4°F-0.3°C 95% 2.0 mph SW3.2 kmh SW 3.0 mph4.8 kmh 30.15 in1021.0 mb 0.01 in0.3 mm 0.02 in0.5 mm 0.01 in0.3 mm
03:10 AM 32.7°F0.4°C 31.4°F-0.3°C 95% Calm Calm -- 30.16 in1021.3 mb 0.00 in0.0 mm 0.00 in0.0 mm 0.01 in0.3 mm
03:20 AM 32.8°F0.4°C 31.5°F-0.3°C 95% Calm Calm -- 30.16 in1021.3 mb 0.00 in0.0 mm 0.00 in0.0 mm 0.01 in0.3 mm
03:30 AM 32.1°F0.1°C 31.1°F-0.5°C 96% Calm Calm -- 30.13 in1020.3 mb - 0.00 in0.0 mm 0.01 in0.3 mm
04:00 AM 31.9°F-0.1°C 31.2°F-0.4°C 97% 2.5 mph WNW4.0 kmh WNW 3.0 mph4.8 kmh 30.15 in1021.0 mb - 0.00 in0.0 mm 0.01 in0.3 mm
04:30 AM 33.6°F0.9°C 32.3°F0.2°C 95% Calm Calm -- 30.19 in1022.4 mb 0.00 in0.0 mm 0.00 in0.0 mm 0.01 in0.3 mm
04:40 AM 33.8°F1.0°C 32.5°F0.3°C 95% Calm Calm 2.0 mph3.2 kmh 30.19 in1022.4 mb 0.00 in0.0 mm 0.00 in0.0 mm 0.01 in0.3 mm
04:50 AM 34.0°F1.1°C 32.8°F0.4°C 95% Calm Calm -- 30.20 in1022.7 mb 0.00 in0.0 mm 0.00 in0.0 mm 0.01 in0.3 mm
05:00 AM 34.2°F1.2°C 32.9°F0.5°C 95% Calm Calm -- 30.20 in1022.7 mb 0.00 in0.0 mm 0.00 in0.0 mm 0.01 in0.3 mm
05:10 AM 34.3°F1.3°C 33.0°F0.6°C 95% Calm Calm -- 30.20 in1022.7 mb 0.00 in0.0 mm 0.00 in0.0 mm 0.01 in0.3 mm
05:20 AM 34.2°F1.2°C 32.9°F0.5°C 95% Calm Calm -- 30.20 in1022.7 mb 0.00 in0.0 mm 0.00 in0.0 mm 0.01 in0.3 mm
05:30 AM 34.1°F1.2°C 32.8°F0.4°C 95% 1.0 mph SW1.6 kmh SW 3.0 mph4.8 kmh 30.20 in1022.7 mb 0.00 in0.0 mm 0.00 in0.0 mm 0.01 in0.3 mm
05:40 AM 33.8°F1.0°C 32.5°F0.3°C 95% Calm Calm -- 30.20 in1022.7 mb 0.00 in0.0 mm 0.00 in0.0 mm 0.01 in0.3 mm
05:50 AM 33.5°F0.8°C 32.2°F0.1°C 95% Calm Calm -- 30.21 in1023.0 mb 0.00 in0.0 mm 0.00 in0.0 mm 0.01 in0.3 mm
06:00 AM 33.2°F0.7°C 31.9°F-0.1°C 95% Calm Calm -- 30.21 in1023.0 mb 0.00 in0.0 mm 0.00 in0.0 mm 0.01 in0.3 mm
06:10 AM 32.9°F0.5°C 31.4°F-0.3°C 94% Calm Calm -- 30.22 in1023.4 mb 0.00 in0.0 mm 0.00 in0.0 mm 0.01 in0.3 mm
06:20 AM 32.9°F0.5°C 31.6°F-0.2°C 95% Calm Calm -- 30.22 in1023.4 mb 0.00 in0.0 mm 0.00 in0.0 mm 0.01 in0.3 mm
06:30 AM 32.9°F0.5°C 31.7°F-0.2°C 95% Calm Calm 1.0 mph1.6 kmh 30.23 in1023.7 mb 0.00 in0.0 mm 0.00 in0.0 mm 0.01 in0.3 mm
06:40 AM 33.0°F0.6°C 31.7°F-0.2°C 95% Calm Calm -- 30.23 in1023.7 mb 0.00 in0.0 mm 0.00 in0.0 mm 0.01 in0.3 mm
06:50 AM 33.0°F0.6°C 31.7°F-0.2°C 95% Calm Calm -- 30.23 in1023.7 mb 0.00 in0.0 mm 0.00 in0.0 mm 0.01 in0.3 mm
07:00 AM 33.0°F0.6°C 31.7°F-0.2°C 95% Calm Calm -- 30.24 in1024.0 mb 0.00 in0.0 mm 0.00 in0.0 mm 0.01 in0.3 mm
07:10 AM 33.2°F0.7°C 31.9°F-0.1°C 95% Calm Calm -- 30.24 in1024.0 mb 0.00 in0.0 mm 0.00 in0.0 mm 0.01 in0.3 mm
07:20 AM 33.3°F0.7°C 32.0°F0.0°C 95% Calm Calm 2.0 mph3.2 kmh 30.24 in1024.0 mb 0.00 in0.0 mm 0.00 in0.0 mm 0.01 in0.3 mm
07:30 AM 33.3°F0.7°C 32.0°F0.0°C 95% 2.0 mph SW3.2 kmh SW 3.0 mph4.8 kmh 30.24 in1024.0 mb - 0.00 in0.0 mm 0.01 in0.3 mm
07:40 AM 33.3°F0.7°C 32.0°F0.0°C 95% Calm Calm -- 30.24 in1024.0 mb - 0.00 in0.0 mm 0.01 in0.3 mm
07:50 AM 33.2°F0.7°C 31.9°F-0.1°C 95% Calm Calm -- 30.25 in1024.4 mb - 0.00 in0.0 mm 0.01 in0.3 mm
08:00 AM 33.3°F0.7°C 32.0°F0.0°C 95% Calm Calm -- 30.25 in1024.4 mb - 0.00 in0.0 mm 0.01 in0.3 mm
08:10 AM 33.5°F0.8°C 32.2°F0.1°C 95% 1.0 mph SW1.6 kmh SW 2.0 mph3.2 kmh 30.26 in1024.7 mb - 0.00 in0.0 mm 0.01 in0.3 mm
08:20 AM 33.8°F1.0°C 32.5°F0.3°C 95% Calm Calm -- 30.26 in1024.7 mb - 0.00 in0.0 mm 0.01 in0.3 mm
08:30 AM 34.2°F1.2°C 32.9°F0.5°C 95% 1.0 mph SW1.6 kmh SW 3.0 mph4.8 kmh 30.27 in1025.1 mb - 0.00 in0.0 mm 0.01 in0.3 mm
08:40 AM 34.6°F1.4°C 33.3°F0.7°C 95% 1.0 mph SW1.6 kmh SW 1.0 mph1.6 kmh 30.27 in1025.1 mb - 0.00 in0.0 mm 0.01 in0.3 mm
08:50 AM 35.0°F1.7°C 33.7°F0.9°C 95% 1.0 mph SW1.6 kmh SW 2.0 mph3.2 kmh 30.27 in1025.1 mb - 0.00 in0.0 mm 0.01 in0.3 mm
09:00 AM 35.3°F1.8°C 34.0°F1.1°C 95% 1.0 mph SW1.6 kmh SW 2.0 mph3.2 kmh 30.28 in1025.4 mb - 0.00 in0.0 mm 0.01 in0.3 mm
09:10 AM 35.8°F2.1°C 34.5°F1.4°C 95% 1.0 mph SW1.6 kmh SW 3.0 mph4.8 kmh 30.28 in1025.4 mb - 0.00 in0.0 mm 0.01 in0.3 mm
09:20 AM 36.3°F2.4°C 35.0°F1.7°C 95% 1.0 mph SW1.6 kmh SW 2.0 mph3.2 kmh 30.28 in1025.4 mb - 0.00 in0.0 mm 0.01 in0.3 mm
09:30 AM 36.9°F2.7°C 35.6°F2.0°C 95% 2.0 mph SW3.2 kmh SW 3.0 mph4.8 kmh 30.28 in1025.4 mb - 0.00 in0.0 mm 0.01 in0.3 mm
09:40 AM 37.5°F3.1°C 36.2°F2.3°C 95% 1.0 mph SW1.6 kmh SW 3.0 mph4.8 kmh 30.29 in1025.7 mb - 0.00 in0.0 mm 0.01 in0.3 mm
09:50 AM 38.1°F3.4°C 36.8°F2.7°C 95% 1.0 mph SW1.6 kmh SW 2.0 mph3.2 kmh 30.29 in1025.7 mb - 0.00 in0.0 mm 0.01 in0.3 mm
10:00 AM 39.2°F4.0°C 37.9°F3.3°C 95% 2.0 mph SW3.2 kmh SW 3.0 mph4.8 kmh 30.29 in1025.7 mb - 0.00 in0.0 mm 0.01 in0.3 mm
10:10 AM 40.6°F4.8°C 38.7°F3.7°C 93% Calm Calm 1.0 mph1.6 kmh 30.29 in1025.7 mb - 0.00 in0.0 mm 0.01 in0.3 mm
10:20 AM 41.7°F5.4°C 39.0°F3.9°C 90% 2.0 mph SW3.2 kmh SW 3.0 mph4.8 kmh 30.29 in1025.7 mb - 0.00 in0.0 mm 0.01 in0.3 mm
10:30 AM 44.2°F6.8°C 40.6°F4.8°C 87% 5.0 mph W8.0 kmh W 8.0 mph12.9 kmh 30.28 in1025.4 mb - 0.00 in0.0 mm 0.01 in0.3 mm
10:40 AM 44.1°F6.7°C 39.3°F4.1°C 83% 6.0 mph W9.7 kmh W 9.0 mph14.5 kmh 30.28 in1025.4 mb - 0.00 in0.0 mm 0.01 in0.3 mm
10:50 AM 42.2°F5.7°C 38.3°F3.5°C 86% 3.0 mph W4.8 kmh W 3.0 mph4.8 kmh 30.29 in1025.7 mb - 0.00 in0.0 mm 0.01 in0.3 mm
11:00 AM 42.5°F5.8°C 39.5°F4.2°C 89% 3.0 mph W4.8 kmh W 8.0 mph12.9 kmh 30.29 in1025.7 mb - 0.00 in0.0 mm 0.01 in0.3 mm
11:10 AM 43.7°F6.5°C 39.5°F4.2°C 85% 5.0 mph W8.0 kmh W 6.0 mph9.7 kmh 30.28 in1025.4 mb - 0.00 in0.0 mm 0.01 in0.3 mm
11:20 AM 44.1°F6.7°C 39.9°F4.4°C 85% 3.0 mph W4.8 kmh W 6.0 mph9.7 kmh 30.28 in1025.4 mb - 0.00 in0.0 mm 0.01 in0.3 mm
11:30 AM 45.7°F7.6°C 40.5°F4.7°C 82% 6.0 mph W9.7 kmh W 6.0 mph9.7 kmh 30.28 in1025.4 mb - 0.00 in0.0 mm 0.01 in0.3 mm
11:40 AM 46.3°F7.9°C 40.8°F4.9°C 81% 7.0 mph WSW11.3 kmh WSW 10.0 mph16.1 kmh 30.28 in1025.4 mb - 0.00 in0.0 mm 0.01 in0.3 mm
11:50 AM 46.8°F8.2°C 41.2°F5.1°C 81% 5.0 mph WSW8.0 kmh WSW 8.0 mph12.9 kmh 30.28 in1025.4 mb - 0.00 in0.0 mm 0.01 in0.3 mm
12:00 PM 45.8°F7.7°C 40.0°F4.4°C 80% 3.0 mph WSW4.8 kmh WSW 6.0 mph9.7 kmh 30.28 in1025.4 mb - 0.00 in0.0 mm 0.01 in0.3 mm
12:10 PM 45.7°F7.6°C 40.2°F4.6°C 81% 5.0 mph WSW8.0 kmh WSW 6.0 mph9.7 kmh 30.28 in1025.4 mb - 0.00 in0.0 mm 0.01 in0.3 mm
12:20 PM 45.8°F7.7°C 39.6°F4.2°C 79% 5.0 mph WSW8.0 kmh WSW 9.0 mph14.5 kmh 30.27 in1025.1 mb - 0.00 in0.0 mm 0.01 in0.3 mm
12:30 PM 45.4°F7.4°C 39.3°F4.1°C 79% 6.0 mph WSW9.7 kmh WSW 6.0 mph9.7 kmh 30.27 in1025.1 mb - 0.00 in0.0 mm 0.01 in0.3 mm
12:40 PM 44.5°F6.9°C 38.8°F3.8°C 80% 3.0 mph SW4.8 kmh SW 7.0 mph11.3 kmh 30.27 in1025.1 mb - 0.00 in0.0 mm 0.01 in0.3 mm
12:50 PM 44.7°F7.1°C 38.9°F3.8°C 80% 3.0 mph SW4.8 kmh SW 6.0 mph9.7 kmh 30.28 in1025.4 mb - 0.00 in0.0 mm 0.01 in0.3 mm
01:00 PM 45.6°F7.6°C 39.8°F4.3°C 80% 3.0 mph SW4.8 kmh SW 6.0 mph9.7 kmh 30.27 in1025.1 mb - 0.00 in0.0 mm 0.01 in0.3 mm
01:10 PM 45.3°F7.4°C 39.1°F3.9°C 79% 3.0 mph SW4.8 kmh SW 3.0 mph4.8 kmh 30.27 in1025.1 mb - 0.00 in0.0 mm 0.01 in0.3 mm
01:20 PM 45.0°F7.2°C 39.2°F4.0°C 80% 5.0 mph WSW8.0 kmh WSW 7.0 mph11.3 kmh 30.27 in1025.1 mb - 0.00 in0.0 mm 0.01 in0.3 mm
01:30 PM 45.0°F7.2°C 39.2°F4.0°C 80% 3.0 mph SW4.8 kmh SW 3.0 mph4.8 kmh 30.27 in1025.1 mb - 0.00 in0.0 mm 0.01 in0.3 mm
01:40 PM 45.3°F7.4°C 39.5°F4.2°C 80% 5.0 mph SW8.0 kmh SW 7.0 mph11.3 kmh 30.27 in1025.1 mb - 0.00 in0.0 mm 0.01 in0.3 mm
01:50 PM 45.0°F7.2°C 39.2°F4.0°C 80% 3.0 mph SW4.8 kmh SW 8.0 mph12.9 kmh 30.27 in1025.1 mb - 0.00 in0.0 mm 0.01 in0.3 mm
02:00 PM 56.8°F13.8°C 49.0°F9.4°C 75% Calm Calm 1.0 mph1.6 kmh 29.98 in1015.2 mb - 0.00 in0.0 mm 0.01 in0.3 mm
02:10 PM 44.9°F7.2°C 39.1°F3.9°C 80% 5.0 mph SSW8.0 kmh SSW 8.0 mph12.9 kmh 30.27 in1025.1 mb - 0.01 in0.3 mm 0.01 in0.3 mm
02:20 PM 44.2°F6.8°C 38.8°F3.8°C 81% 5.0 mph SSW8.0 kmh SSW 9.0 mph14.5 kmh 30.27 in1025.1 mb - 0.00 in0.0 mm 0.01 in0.3 mm
02:30 PM 44.1°F6.7°C 38.6°F3.7°C 81% 6.0 mph SSW9.7 kmh SSW 7.0 mph11.3 kmh 30.27 in1025.1 mb - 0.00 in0.0 mm 0.01 in0.3 mm
02:40 PM 44.5°F6.9°C 39.6°F4.2°C 83% 3.0 mph SW4.8 kmh SW 6.0 mph9.7 kmh 30.27 in1025.1 mb - 0.00 in0.0 mm 0.01 in0.3 mm
02:50 PM 44.0°F6.7°C 38.9°F3.8°C 82% 6.0 mph SW9.7 kmh SW 8.0 mph12.9 kmh 30.27 in1025.1 mb - 0.00 in0.0 mm 0.01 in0.3 mm
03:00 PM 43.2°F6.2°C 38.4°F3.6°C 83% 7.0 mph SW11.3 kmh SW 10.0 mph16.1 kmh 30.27 in1025.1 mb - 0.00 in0.0 mm 0.01 in0.3 mm
03:10 PM 43.1°F6.2°C 38.5°F3.6°C 84% 5.0 mph SW8.0 kmh SW 6.0 mph9.7 kmh 30.28 in1025.4 mb - 0.00 in0.0 mm 0.01 in0.3 mm
03:20 PM 42.1°F5.6°C 37.6°F3.1°C 84% 3.0 mph SW4.8 kmh SW 7.0 mph11.3 kmh 30.28 in1025.4 mb - 0.00 in0.0 mm 0.01 in0.3 mm
03:30 PM 41.3°F5.2°C 37.5°F3.1°C 86% 5.0 mph SW8.0 kmh SW 10.0 mph16.1 kmh 30.28 in1025.4 mb - 0.00 in0.0 mm 0.01 in0.3 mm
03:40 PM 41.2°F5.1°C 37.3°F2.9°C 86% 5.0 mph SW8.0 kmh SW 6.0 mph9.7 kmh 30.28 in1025.4 mb - 0.00 in0.0 mm 0.01 in0.3 mm
03:50 PM 40.9°F4.9°C 37.3°F2.9°C 87% 5.0 mph SW8.0 kmh SW 5.0 mph8.0 kmh 30.28 in1025.4 mb - 0.00 in0.0 mm 0.01 in0.3 mm
04:00 PM 40.8°F4.9°C 37.2°F2.9°C 87% 5.0 mph SW8.0 kmh SW 7.0 mph11.3 kmh 30.28 in1025.4 mb - 0.00 in0.0 mm 0.01 in0.3 mm
04:10 PM 40.6°F4.8°C 36.7°F2.6°C 86% 2.0 mph SW3.2 kmh SW 5.0 mph8.0 kmh 30.28 in1025.4 mb 0.00 in0.0 mm 0.00 in0.0 mm 0.01 in0.3 mm
04:20 PM 40.1°F4.5°C 36.5°F2.5°C 87% 2.0 mph SW3.2 kmh SW 5.0 mph8.0 kmh 30.28 in1025.4 mb 0.00 in0.0 mm 0.00 in0.0 mm 0.01 in0.3 mm
04:30 PM 39.9°F4.4°C 36.6°F2.6°C 88% 5.0 mph SSW8.0 kmh SSW 5.0 mph8.0 kmh 30.28 in1025.4 mb 0.00 in0.0 mm 0.00 in0.0 mm 0.01 in0.3 mm
04:40 PM 39.9°F4.4°C 36.6°F2.6°C 88% 7.0 mph SSW11.3 kmh SSW 9.0 mph14.5 kmh 30.27 in1025.1 mb 0.00 in0.0 mm 0.00 in0.0 mm 0.01 in0.3 mm
04:50 PM 39.9°F4.4°C 36.3°F2.4°C 87% 6.0 mph SSW9.7 kmh SSW 12.0 mph19.3 kmh 30.27 in1025.1 mb 0.00 in0.0 mm 0.00 in0.0 mm 0.01 in0.3 mm
05:00 PM 39.4°F4.1°C 35.9°F2.2°C 87% 7.0 mph SSW11.3 kmh SSW 12.0 mph19.3 kmh 30.27 in1025.1 mb 0.00 in0.0 mm 0.00 in0.0 mm 0.01 in0.3 mm
05:10 PM 38.8°F3.8°C 35.3°F1.8°C 87% 6.0 mph SW9.7 kmh SW 9.0 mph14.5 kmh 30.27 in1025.1 mb 0.00 in0.0 mm 0.00 in0.0 mm 0.01 in0.3 mm
05:20 PM 38.8°F3.8°C 35.6°F2.0°C 88% 6.0 mph SSW9.7 kmh SSW 9.0 mph14.5 kmh 30.28 in1025.4 mb 0.00 in0.0 mm 0.00 in0.0 mm 0.01 in0.3 mm
05:30 PM 38.9°F3.8°C 35.6°F2.0°C 88% 6.0 mph SSW9.7 kmh SSW 7.0 mph11.3 kmh 30.28 in1025.4 mb 0.00 in0.0 mm 0.00 in0.0 mm 0.01 in0.3 mm
05:40 PM 39.1°F3.9°C 35.6°F2.0°C 87% 6.0 mph SSW9.7 kmh SSW 10.0 mph16.1 kmh 30.29 in1025.7 mb 0.00 in0.0 mm 0.00 in0.0 mm 0.01 in0.3 mm
05:50 PM 39.3°F4.1°C 35.7°F2.1°C 87% 5.0 mph S8.0 kmh S 9.0 mph14.5 kmh 30.29 in1025.7 mb 0.00 in0.0 mm 0.00 in0.0 mm 0.01 in0.3 mm
06:00 PM 39.2°F4.0°C 35.4°F1.9°C 86% 7.0 mph SW11.3 kmh SW 8.0 mph12.9 kmh 30.29 in1025.7 mb 0.00 in0.0 mm 0.00 in0.0 mm 0.01 in0.3 mm
06:10 PM 39.2°F4.0°C 35.7°F2.1°C 87% 6.0 mph SSW9.7 kmh SSW 10.0 mph16.1 kmh 30.30 in1026.1 mb 0.00 in0.0 mm 0.00 in0.0 mm 0.01 in0.3 mm
06:20 PM 39.1°F3.9°C 35.6°F2.0°C 87% 7.0 mph SW11.3 kmh SW 10.0 mph16.1 kmh 30.29 in1025.7 mb 0.00 in0.0 mm 0.00 in0.0 mm 0.01 in0.3 mm
06:30 PM 39.1°F3.9°C 35.5°F1.9°C 87% 7.0 mph SW11.3 kmh SW 10.0 mph16.1 kmh 30.29 in1025.7 mb 0.00 in0.0 mm 0.00 in0.0 mm 0.01 in0.3 mm
06:40 PM 39.0°F3.9°C 35.5°F1.9°C 87% 5.0 mph SSW8.0 kmh SSW 6.0 mph9.7 kmh 30.30 in1026.1 mb 0.00 in0.0 mm 0.00 in0.0 mm 0.01 in0.3 mm
06:50 PM 39.1°F3.9°C 35.8°F2.1°C 88% 5.0 mph SSW8.0 kmh SSW 8.0 mph12.9 kmh 30.30 in1026.1 mb 0.00 in0.0 mm 0.00 in0.0 mm 0.01 in0.3 mm
07:00 PM 38.8°F3.8°C 35.6°F2.0°C 88% 7.0 mph SSW11.3 kmh SSW 9.0 mph14.5 kmh 30.30 in1026.1 mb 0.00 in0.0 mm 0.00 in0.0 mm 0.01 in0.3 mm
07:10 PM 38.2°F3.4°C 35.0°F1.7°C 88% 7.0 mph SSW11.3 kmh SSW 9.0 mph14.5 kmh 30.30 in1026.1 mb 0.00 in0.0 mm 0.00 in0.0 mm 0.01 in0.3 mm
07:20 PM 37.8°F3.2°C 34.8°F1.6°C 89% 5.0 mph SSW8.0 kmh SSW 7.0 mph11.3 kmh 30.30 in1026.1 mb 0.00 in0.0 mm 0.00 in0.0 mm 0.01 in0.3 mm
07:30 PM 37.3°F2.9°C 34.6°F1.4°C 90% 6.0 mph SSW9.7 kmh SSW 9.0 mph14.5 kmh 30.30 in1026.1 mb 0.00 in0.0 mm 0.00 in0.0 mm 0.01 in0.3 mm
07:40 PM 37.2°F2.9°C 34.6°F1.4°C 90% 7.0 mph SSW11.3 kmh SSW 9.0 mph14.5 kmh 30.30 in1026.1 mb 0.00 in0.0 mm 0.00 in0.0 mm 0.01 in0.3 mm
07:50 PM 37.1°F2.8°C 34.7°F1.5°C 91% 6.0 mph SSW9.7 kmh SSW 7.0 mph11.3 kmh 30.31 in1026.4 mb 0.00 in0.0 mm 0.00 in0.0 mm 0.01 in0.3 mm
08:00 PM 36.7°F2.6°C 34.3°F1.3°C 91% 5.0 mph SW8.0 kmh SW 7.0 mph11.3 kmh 30.31 in1026.4 mb 0.00 in0.0 mm 0.00 in0.0 mm 0.01 in0.3 mm
08:10 PM 36.4°F2.4°C 34.0°F1.1°C 91% 6.0 mph SSW9.7 kmh SSW 9.0 mph14.5 kmh 30.31 in1026.4 mb 0.00 in0.0 mm 0.00 in0.0 mm 0.01 in0.3 mm
08:20 PM 36.1°F2.3°C 34.0°F1.1°C 92% 6.0 mph SW9.7 kmh SW 8.0 mph12.9 kmh 30.31 in1026.4 mb 0.00 in0.0 mm 0.00 in0.0 mm 0.01 in0.3 mm
08:30 PM 36.3°F2.4°C 34.2°F1.2°C 92% 6.0 mph SSW9.7 kmh SSW 10.0 mph16.1 kmh 30.31 in1026.4 mb 0.00 in0.0 mm 0.00 in0.0 mm 0.01 in0.3 mm
08:40 PM 36.7°F2.6°C 34.9°F1.6°C 93% 5.0 mph SSW8.0 kmh SSW 7.0 mph11.3 kmh 30.32 in1026.8 mb 0.00 in0.0 mm 0.00 in0.0 mm 0.01 in0.3 mm
08:50 PM 37.2°F2.9°C 35.1°F1.7°C 92% 6.0 mph S9.7 kmh S 9.0 mph14.5 kmh 30.32 in1026.8 mb 0.00 in0.0 mm 0.00 in0.0 mm 0.01 in0.3 mm
09:00 PM 37.4°F3.0°C 35.0°F1.7°C 91% 6.0 mph SSW9.7 kmh SSW 9.0 mph14.5 kmh 30.32 in1026.8 mb 0.00 in0.0 mm 0.00 in0.0 mm 0.01 in0.3 mm
09:10 PM 37.6°F3.1°C 35.2°F1.8°C 91% 6.0 mph S9.7 kmh S 10.0 mph16.1 kmh 30.32 in1026.8 mb 0.00 in0.0 mm 0.00 in0.0 mm 0.01 in0.3 mm
09:20 PM 37.7°F3.2°C 35.3°F1.8°C 91% 5.0 mph SSW8.0 kmh SSW 8.0 mph12.9 kmh 30.32 in1026.8 mb 0.00 in0.0 mm 0.00 in0.0 mm 0.01 in0.3 mm
09:30 PM 37.7°F3.2°C 35.3°F1.8°C 91% 6.0 mph SSW9.7 kmh SSW 9.0 mph14.5 kmh 30.32 in1026.8 mb 0.00 in0.0 mm 0.00 in0.0 mm 0.01 in0.3 mm
09:40 PM 37.6°F3.1°C 35.2°F1.8°C 91% 6.0 mph SSW9.7 kmh SSW 8.0 mph12.9 kmh 30.33 in1027.1 mb 0.00 in0.0 mm 0.00 in0.0 mm 0.01 in0.3 mm
09:50 PM 37.4°F3.0°C 35.0°F1.7°C 91% 5.0 mph SSW8.0 kmh SSW 8.0 mph12.9 kmh 30.32 in1026.8 mb 0.00 in0.0 mm 0.00 in0.0 mm 0.01 in0.3 mm
10:00 PM 37.5°F3.1°C 35.1°F1.7°C 91% 5.0 mph SSW8.0 kmh SSW 5.0 mph8.0 kmh 30.32 in1026.8 mb 0.00 in0.0 mm 0.00 in0.0 mm 0.01 in0.3 mm
10:10 PM 37.6°F3.1°C 35.2°F1.8°C 91% 2.0 mph SSW3.2 kmh SSW 3.0 mph4.8 kmh 30.32 in1026.8 mb 0.00 in0.0 mm 0.00 in0.0 mm 0.01 in0.3 mm
10:20 PM 37.3°F2.9°C 34.9°F1.6°C 91% 2.0 mph SSW3.2 kmh SSW 3.0 mph4.8 kmh 30.32 in1026.8 mb 0.00 in0.0 mm 0.00 in0.0 mm 0.01 in0.3 mm
10:30 PM 36.8°F2.7°C 34.7°F1.5°C 92% 1.0 mph SSW1.6 kmh SSW 2.0 mph3.2 kmh 30.32 in1026.8 mb 0.00 in0.0 mm 0.00 in0.0 mm 0.01 in0.3 mm
10:40 PM 36.1°F2.3°C 34.0°F1.1°C 92% 1.0 mph SSW1.6 kmh SSW 3.0 mph4.8 kmh 30.32 in1026.8 mb 0.00 in0.0 mm 0.00 in0.0 mm 0.01 in0.3 mm
10:50 PM 35.7°F2.1°C 33.6°F0.9°C 92% 1.0 mph SSW1.6 kmh SSW 2.0 mph3.2 kmh 30.32 in1026.8 mb 0.00 in0.0 mm 0.00 in0.0 mm 0.01 in0.3 mm
11:00 PM 35.1°F1.7°C 33.2°F0.7°C 93% Calm Calm -- 30.32 in1026.8 mb 0.00 in0.0 mm 0.00 in0.0 mm 0.01 in0.3 mm
11:30 PM 28.4°F-2.0°C 28.2°F-2.1°C 99% Calm Calm -- 30.33 in1027.1 mb - 0.00 in0.0 mm 0.01 in0.3 mm